sensor_id;sensor_type;location;lat;lon;timestamp;temperature;humidity
49032;DHT22;63443;48.366;10.876;2022-12-18T00:00:44;-4.80;99.90
49032;DHT22;63443;48.366;10.876;2022-12-18T00:03:09;-4.70;99.90
49032;DHT22;63443;48.366;10.876;2022-12-18T00:05:35;-4.70;99.90
49032;DHT22;63443;48.366;10.876;2022-12-18T00:08:01;-4.70;99.90
49032;DHT22;63443;48.366;10.876;2022-12-18T00:10:27;-4.80;99.90
49032;DHT22;63443;48.366;10.876;2022-12-18T00:12:52;-4.80;99.90
49032;DHT22;63443;48.366;10.876;2022-12-18T00:15:18;-4.80;99.90
49032;DHT22;63443;48.366;10.876;2022-12-18T00:17:43;-4.70;99.90
49032;DHT22;63443;48.366;10.876;2022-12-18T00:20:09;-4.60;99.90
49032;DHT22;63443;48.366;10.876;2022-12-18T00:22:34;-4.70;99.90
49032;DHT22;63443;48.366;10.876;2022-12-18T00:25:00;-4.80;99.90
49032;DHT22;63443;48.366;10.876;2022-12-18T00:27:25;-4.80;99.90
49032;DHT22;63443;48.366;10.876;2022-12-18T00:29:51;-4.80;99.90
49032;DHT22;63443;48.366;10.876;2022-12-18T00:32:16;-4.80;99.90
49032;DHT22;63443;48.366;10.876;2022-12-18T00:34:42;-4.80;99.90
49032;DHT22;63443;48.366;10.876;2022-12-18T00:37:07;-4.70;99.90
49032;DHT22;63443;48.366;10.876;2022-12-18T00:39:33;-4.60;99.90
49032;DHT22;63443;48.366;10.876;2022-12-18T00:41:58;-4.70;99.90
49032;DHT22;63443;48.366;10.876;2022-12-18T00:44:42;-4.70;99.90
49032;DHT22;63443;48.366;10.876;2022-12-18T00:47:08;-4.80;99.90
49032;DHT22;63443;48.366;10.876;2022-12-18T00:49:33;-4.70;99.90
49032;DHT22;63443;48.366;10.876;2022-12-18T00:51:59;-4.80;99.90
49032;DHT22;63443;48.366;10.876;2022-12-18T00:54:24;-4.80;99.90
49032;DHT22;63443;48.366;10.876;2022-12-18T00:56:50;-4.70;99.90
49032;DHT22;63443;48.366;10.876;2022-12-18T00:59:16;-4.70;99.90
49032;DHT22;63443;48.366;10.876;2022-12-18T01:01:41;-4.70;99.90
49032;DHT22;63443;48.366;10.876;2022-12-18T01:04:07;-4.70;99.90
49032;DHT22;63443;48.366;10.876;2022-12-18T01:06:33;-4.70;99.90
49032;DHT22;63443;48.366;10.876;2022-12-18T01:08:58;-4.70;99.90
49032;DHT22;63443;48.366;10.876;2022-12-18T01:11:24;-4.70;99.90
49032;DHT22;63443;48.366;10.876;2022-12-18T01:13:51;-4.70;99.90
49032;DHT22;63443;48.366;10.876;2022-12-18T01:16:17;-4.60;99.90
49032;DHT22;63443;48.366;10.876;2022-12-18T01:18:43;-4.60;99.90
49032;DHT22;63443;48.366;10.876;2022-12-18T01:21:13;-4.60;99.90
49032;DHT22;63443;48.366;10.876;2022-12-18T01:23:38;-4.70;99.90
49032;DHT22;63443;48.366;10.876;2022-12-18T01:26:05;-4.90;99.90
49032;DHT22;63443;48.366;10.876;2022-12-18T01:28:30;-4.90;99.90
49032;DHT22;63443;48.366;10.876;2022-12-18T01:30:56;-4.90;99.90
49032;DHT22;63443;48.366;10.876;2022-12-18T01:33:21;-5.00;99.90
49032;DHT22;63443;48.366;10.876;2022-12-18T01:35:47;-5.00;99.90
49032;DHT22;63443;48.366;10.876;2022-12-18T01:38:12;-5.00;99.90
49032;DHT22;63443;48.366;10.876;2022-12-18T01:40:38;-5.00;99.90
49032;DHT22;63443;48.366;10.876;2022-12-18T01:43:03;-4.90;99.90
49032;DHT22;63443;48.366;10.876;2022-12-18T01:45:30;-4.90;99.90
49032;DHT22;63443;48.366;10.876;2022-12-18T01:47:59;-4.90;99.90
49032;DHT22;63443;48.366;10.876;2022-12-18T01:50:39;-4.90;99.90
49032;DHT22;63443;48.366;10.876;2022-12-18T01:53:12;-4.80;99.90
49032;DHT22;63443;48.366;10.876;2022-12-18T01:55:43;-5.00;99.90
49032;DHT22;63443;48.366;10.876;2022-12-18T01:58:13;-5.10;99.90
49032;DHT22;63443;48.366;10.876;2022-12-18T02:00:39;-5.00;99.90
49032;DHT22;63443;48.366;10.876;2022-12-18T02:03:04;-5.10;99.90
49032;DHT22;63443;48.366;10.876;2022-12-18T02:05:44;-5.10;99.90
49032;DHT22;63443;48.366;10.876;2022-12-18T02:18:21;-5.40;99.90
49032;DHT22;63443;48.366;10.876;2022-12-18T02:20:49;-5.30;99.90
49032;DHT22;63443;48.366;10.876;2022-12-18T02:26:04;-5.40;99.90
49032;DHT22;63443;48.366;10.876;2022-12-18T02:28:39;-5.40;99.90
49032;DHT22;63443;48.366;10.876;2022-12-18T02:31:06;-5.30;99.90
49032;DHT22;63443;48.366;10.876;2022-12-18T02:33:33;-5.20;99.90
49032;DHT22;63443;48.366;10.876;2022-12-18T02:35:59;-5.30;99.90
49032;DHT22;63443;48.366;10.876;2022-12-18T02:38:25;-5.30;99.90
49032;DHT22;63443;48.366;10.876;2022-12-18T02:40:51;-5.40;99.90
49032;DHT22;63443;48.366;10.876;2022-12-18T02:43:17;-5.40;99.90
49032;DHT22;63443;48.366;10.876;2022-12-18T02:48:14;-5.20;99.90
49032;DHT22;63443;48.366;10.876;2022-12-18T02:50:42;-5.20;99.90
49032;DHT22;63443;48.366;10.876;2022-12-18T03:01:06;-5.30;99.90
49032;DHT22;63443;48.366;10.876;2022-12-18T03:03:39;-5.20;99.90
49032;DHT22;63443;48.366;10.876;2022-12-18T03:06:07;-5.20;99.90
49032;DHT22;63443;48.366;10.876;2022-12-18T03:08:39;-5.20;99.90
49032;DHT22;63443;48.366;10.876;2022-12-18T03:11:08;-5.40;99.90
49032;DHT22;63443;48.366;10.876;2022-12-18T03:13:38;-5.40;99.90
49032;DHT22;63443;48.366;10.876;2022-12-18T03:16:06;-5.50;99.90
49032;DHT22;63443;48.366;10.876;2022-12-18T03:18:34;-5.50;99.90
49032;DHT22;63443;48.366;10.876;2022-12-18T03:21:02;-5.40;99.90
49032;DHT22;63443;48.366;10.876;2022-12-18T03:23:32;-5.40;99.90
49032;DHT22;63443;48.366;10.876;2022-12-18T03:26:00;-5.50;99.90
49032;DHT22;63443;48.366;10.876;2022-12-18T03:28:26;-5.30;99.90
49032;DHT22;63443;48.366;10.876;2022-12-18T03:30:55;-5.30;99.90
49032;DHT22;63443;48.366;10.876;2022-12-18T03:33:31;-5.30;99.90
49032;DHT22;63443;48.366;10.876;2022-12-18T03:35:59;-5.40;99.90
49032;DHT22;63443;48.366;10.876;2022-12-18T03:38:24;-5.40;99.90
49032;DHT22;63443;48.366;10.876;2022-12-18T03:43:17;-5.40;99.90
49032;DHT22;63443;48.366;10.876;2022-12-18T03:45:48;-5.40;99.90
49032;DHT22;63443;48.366;10.876;2022-12-18T03:48:22;-5.50;99.90
49032;DHT22;63443;48.366;10.876;2022-12-18T03:53:23;-5.30;99.90
49032;DHT22;63443;48.366;10.876;2022-12-18T03:55:51;-5.30;99.90
49032;DHT22;63443;48.366;10.876;2022-12-18T03:58:17;-5.20;99.90
49032;DHT22;63443;48.366;10.876;2022-12-18T04:00:44;-5.20;99.90
49032;DHT22;63443;48.366;10.876;2022-12-18T04:03:11;-5.10;99.90
49032;DHT22;63443;48.366;10.876;2022-12-18T04:05:37;-5.20;99.90
49032;DHT22;63443;48.366;10.876;2022-12-18T04:08:03;-5.20;99.90
49032;DHT22;63443;48.366;10.876;2022-12-18T04:10:29;-5.20;99.90
49032;DHT22;63443;48.366;10.876;2022-12-18T04:12:55;-5.30;99.90
49032;DHT22;63443;48.366;10.876;2022-12-18T04:15:21;-5.30;99.90
49032;DHT22;63443;48.366;10.876;2022-12-18T04:17:47;-5.30;99.90
49032;DHT22;63443;48.366;10.876;2022-12-18T04:20:13;-5.30;99.90
49032;DHT22;63443;48.366;10.876;2022-12-18T04:22:39;-5.30;99.90
49032;DHT22;63443;48.366;10.876;2022-12-18T04:25:04;-5.20;99.90
49032;DHT22;63443;48.366;10.876;2022-12-18T04:27:30;-5.20;99.90
49032;DHT22;63443;48.366;10.876;2022-12-18T04:29:55;-5.20;99.90
49032;DHT22;63443;48.366;10.876;2022-12-18T04:32:21;-5.10;99.90
49032;DHT22;63443;48.366;10.876;2022-12-18T04:34:46;-5.20;99.90
49032;DHT22;63443;48.366;10.876;2022-12-18T04:37:12;-5.10;99.90
49032;DHT22;63443;48.366;10.876;2022-12-18T04:39:38;-5.10;99.90
49032;DHT22;63443;48.366;10.876;2022-12-18T04:42:03;-5.20;99.90
49032;DHT22;63443;48.366;10.876;2022-12-18T04:44:29;-5.20;99.90
49032;DHT22;63443;48.366;10.876;2022-12-18T04:46:54;-5.20;99.90
49032;DHT22;63443;48.366;10.876;2022-12-18T04:49:21;-5.30;99.90
49032;DHT22;63443;48.366;10.876;2022-12-18T04:51:46;-5.40;99.90
49032;DHT22;63443;48.366;10.876;2022-12-18T04:54:12;-5.30;99.90
49032;DHT22;63443;48.366;10.876;2022-12-18T04:56:37;-5.40;99.90
49032;DHT22;63443;48.366;10.876;2022-12-18T04:59:02;-5.20;99.90
49032;DHT22;63443;48.366;10.876;2022-12-18T05:01:28;-5.20;99.90
49032;DHT22;63443;48.366;10.876;2022-12-18T05:03:53;-5.30;99.90
49032;DHT22;63443;48.366;10.876;2022-12-18T05:06:19;-5.40;99.90
49032;DHT22;63443;48.366;10.876;2022-12-18T05:08:44;-5.30;99.90
49032;DHT22;63443;48.366;10.876;2022-12-18T05:11:11;-5.30;99.90
49032;DHT22;63443;48.366;10.876;2022-12-18T05:13:37;-5.30;99.90
49032;DHT22;63443;48.366;10.876;2022-12-18T05:16:03;-5.50;99.90
49032;DHT22;63443;48.366;10.876;2022-12-18T05:18:29;-5.60;99.90
49032;DHT22;63443;48.366;10.876;2022-12-18T05:20:55;-5.50;99.90
49032;DHT22;63443;48.366;10.876;2022-12-18T05:23:21;-5.40;99.90
49032;DHT22;63443;48.366;10.876;2022-12-18T05:25:53;-5.30;99.90
49032;DHT22;63443;48.366;10.876;2022-12-18T05:28:20;-5.30;99.90
49032;DHT22;63443;48.366;10.876;2022-12-18T05:30:49;-5.50;99.90
49032;DHT22;63443;48.366;10.876;2022-12-18T05:33:15;-5.30;99.90
49032;DHT22;63443;48.366;10.876;2022-12-18T05:35:40;-5.20;99.90
49032;DHT22;63443;48.366;10.876;2022-12-18T05:38:05;-5.30;99.90
49032;DHT22;63443;48.366;10.876;2022-12-18T05:40:31;-5.30;99.90
49032;DHT22;63443;48.366;10.876;2022-12-18T05:42:56;-5.30;99.90
49032;DHT22;63443;48.366;10.876;2022-12-18T05:45:22;-5.20;99.90
49032;DHT22;63443;48.366;10.876;2022-12-18T05:47:47;-5.30;99.90
49032;DHT22;63443;48.366;10.876;2022-12-18T05:50:13;-5.50;99.90
49032;DHT22;63443;48.366;10.876;2022-12-18T05:52:38;-5.50;99.90
49032;DHT22;63443;48.366;10.876;2022-12-18T05:55:04;-5.40;99.90
49032;DHT22;63443;48.366;10.876;2022-12-18T05:57:30;-5.40;99.90
49032;DHT22;63443;48.366;10.876;2022-12-18T05:59:55;-5.70;99.90
49032;DHT22;63443;48.366;10.876;2022-12-18T06:02:21;-5.50;99.90
49032;DHT22;63443;48.366;10.876;2022-12-18T06:04:46;-5.40;99.90
49032;DHT22;63443;48.366;10.876;2022-12-18T06:07:12;-5.30;99.90
49032;DHT22;63443;48.366;10.876;2022-12-18T06:09:37;-5.40;99.90
49032;DHT22;63443;48.366;10.876;2022-12-18T06:12:03;-5.30;99.90
49032;DHT22;63443;48.366;10.876;2022-12-18T06:14:29;-5.30;99.90
49032;DHT22;63443;48.366;10.876;2022-12-18T06:16:54;-5.30;99.90
49032;DHT22;63443;48.366;10.876;2022-12-18T06:19:20;-5.20;99.90
49032;DHT22;63443;48.366;10.876;2022-12-18T06:21:45;-5.10;99.90
49032;DHT22;63443;48.366;10.876;2022-12-18T06:24:11;-5.00;99.90
49032;DHT22;63443;48.366;10.876;2022-12-18T06:26:37;-5.00;99.90
49032;DHT22;63443;48.366;10.876;2022-12-18T06:29:02;-5.10;99.90
49032;DHT22;63443;48.366;10.876;2022-12-18T06:31:28;-5.00;99.90
49032;DHT22;63443;48.366;10.876;2022-12-18T06:33:53;-5.10;99.90
49032;DHT22;63443;48.366;10.876;2022-12-18T06:36:19;-5.00;99.90
49032;DHT22;63443;48.366;10.876;2022-12-18T06:38:46;-5.00;99.90
49032;DHT22;63443;48.366;10.876;2022-12-18T06:41:12;-5.30;99.90
49032;DHT22;63443;48.366;10.876;2022-12-18T06:43:38;-5.50;99.90
49032;DHT22;63443;48.366;10.876;2022-12-18T06:46:03;-5.40;99.90
49032;DHT22;63443;48.366;10.876;2022-12-18T06:48:29;-5.30;99.90
49032;DHT22;63443;48.366;10.876;2022-12-18T06:50:55;-5.30;99.90
49032;DHT22;63443;48.366;10.876;2022-12-18T06:53:21;-5.30;99.90
49032;DHT22;63443;48.366;10.876;2022-12-18T06:55:46;-5.40;99.90
49032;DHT22;63443;48.366;10.876;2022-12-18T06:58:12;-5.50;99.90
49032;DHT22;63443;48.366;10.876;2022-12-18T07:00:37;-5.40;99.90
49032;DHT22;63443;48.366;10.876;2022-12-18T07:03:03;-5.40;99.90
49032;DHT22;63443;48.366;10.876;2022-12-18T07:05:28;-5.30;99.90
49032;DHT22;63443;48.366;10.876;2022-12-18T07:07:54;-5.40;99.90
49032;DHT22;63443;48.366;10.876;2022-12-18T07:10:19;-5.40;99.90
49032;DHT22;63443;48.366;10.876;2022-12-18T07:12:45;-5.30;99.90
49032;DHT22;63443;48.366;10.876;2022-12-18T07:15:10;-5.40;99.90
49032;DHT22;63443;48.366;10.876;2022-12-18T07:17:35;-5.30;99.90
49032;DHT22;63443;48.366;10.876;2022-12-18T07:20:01;-5.40;99.90
49032;DHT22;63443;48.366;10.876;2022-12-18T07:22:27;-5.40;99.90
49032;DHT22;63443;48.366;10.876;2022-12-18T07:24:52;-5.50;99.90
49032;DHT22;63443;48.366;10.876;2022-12-18T07:27:17;-5.30;99.90
49032;DHT22;63443;48.366;10.876;2022-12-18T07:29:43;-5.30;99.90
49032;DHT22;63443;48.366;10.876;2022-12-18T07:32:08;-5.30;99.90
49032;DHT22;63443;48.366;10.876;2022-12-18T07:34:34;-5.30;99.90
49032;DHT22;63443;48.366;10.876;2022-12-18T07:36:59;-5.20;99.90
49032;DHT22;63443;48.366;10.876;2022-12-18T07:39:25;-5.20;99.90
49032;DHT22;63443;48.366;10.876;2022-12-18T07:41:50;-5.10;99.90
49032;DHT22;63443;48.366;10.876;2022-12-18T07:44:35;-5.10;99.90
49032;DHT22;63443;48.366;10.876;2022-12-18T07:47:00;-5.00;99.90
49032;DHT22;63443;48.366;10.876;2022-12-18T07:49:26;-5.10;99.90
49032;DHT22;63443;48.366;10.876;2022-12-18T07:51:53;-5.20;99.90
49032;DHT22;63443;48.366;10.876;2022-12-18T07:54:18;-5.00;99.90
49032;DHT22;63443;48.366;10.876;2022-12-18T07:56:44;-5.00;99.90
49032;DHT22;63443;48.366;10.876;2022-12-18T07:59:10;-5.10;99.90
49032;DHT22;63443;48.366;10.876;2022-12-18T08:01:35;-5.00;99.90
49032;DHT22;63443;48.366;10.876;2022-12-18T08:04:01;-4.90;99.90
49032;DHT22;63443;48.366;10.876;2022-12-18T08:06:26;-4.80;99.90
49032;DHT22;63443;48.366;10.876;2022-12-18T08:08:52;-4.90;99.90
49032;DHT22;63443;48.366;10.876;2022-12-18T08:11:18;-4.80;99.90
49032;DHT22;63443;48.366;10.876;2022-12-18T08:13:44;-4.90;99.90
49032;DHT22;63443;48.366;10.876;2022-12-18T08:16:09;-4.80;99.90
49032;DHT22;63443;48.366;10.876;2022-12-18T08:18:35;-4.80;99.90
49032;DHT22;63443;48.366;10.876;2022-12-18T08:21:08;-4.70;99.90
49032;DHT22;63443;48.366;10.876;2022-12-18T08:23:34;-4.70;99.90
49032;DHT22;63443;48.366;10.876;2022-12-18T08:26:00;-4.70;99.90
49032;DHT22;63443;48.366;10.876;2022-12-18T08:28:25;-4.60;99.90
49032;DHT22;63443;48.366;10.876;2022-12-18T08:30:51;-4.60;99.90
49032;DHT22;63443;48.366;10.876;2022-12-18T08:33:17;-4.40;99.90
49032;DHT22;63443;48.366;10.876;2022-12-18T08:35:42;-4.30;99.90
49032;DHT22;63443;48.366;10.876;2022-12-18T08:38:08;-4.50;99.90
49032;DHT22;63443;48.366;10.876;2022-12-18T08:40:33;-4.50;99.90
49032;DHT22;63443;48.366;10.876;2022-12-18T08:42:59;-4.60;99.90
49032;DHT22;63443;48.366;10.876;2022-12-18T08:45:43;-4.50;99.90
49032;DHT22;63443;48.366;10.876;2022-12-18T08:48:08;-4.50;99.90
49032;DHT22;63443;48.366;10.876;2022-12-18T08:50:34;-4.50;99.90
49032;DHT22;63443;48.366;10.876;2022-12-18T08:53:00;-4.40;99.90
49032;DHT22;63443;48.366;10.876;2022-12-18T08:55:25;-4.40;99.90
49032;DHT22;63443;48.366;10.876;2022-12-18T08:57:51;-4.30;99.90
49032;DHT22;63443;48.366;10.876;2022-12-18T09:00:16;-4.20;99.90
49032;DHT22;63443;48.366;10.876;2022-12-18T09:02:42;-4.20;99.90
49032;DHT22;63443;48.366;10.876;2022-12-18T09:05:07;-4.50;99.90
49032;DHT22;63443;48.366;10.876;2022-12-18T09:07:33;-4.40;99.90
49032;DHT22;63443;48.366;10.876;2022-12-18T09:09:59;-4.40;99.90
49032;DHT22;63443;48.366;10.876;2022-12-18T09:12:24;-4.30;99.90
49032;DHT22;63443;48.366;10.876;2022-12-18T09:14:50;-4.60;99.90
49032;DHT22;63443;48.366;10.876;2022-12-18T09:17:16;-4.50;99.90
49032;DHT22;63443;48.366;10.876;2022-12-18T09:19:41;-4.30;99.90
49032;DHT22;63443;48.366;10.876;2022-12-18T09:22:07;-4.10;99.90
49032;DHT22;63443;48.366;10.876;2022-12-18T09:24:32;-4.40;99.90
49032;DHT22;63443;48.366;10.876;2022-12-18T09:26:57;-4.40;99.90
49032;DHT22;63443;48.366;10.876;2022-12-18T09:29:24;-4.10;99.90
49032;DHT22;63443;48.366;10.876;2022-12-18T09:31:49;-4.20;99.90
49032;DHT22;63443;48.366;10.876;2022-12-18T09:34:15;-4.40;99.90
49032;DHT22;63443;48.366;10.876;2022-12-18T09:36:41;-4.50;99.90
49032;DHT22;63443;48.366;10.876;2022-12-18T09:39:07;-4.40;99.90
49032;DHT22;63443;48.366;10.876;2022-12-18T09:41:40;-4.40;99.90
49032;DHT22;63443;48.366;10.876;2022-12-18T09:46:53;-4.40;99.90
49032;DHT22;63443;48.366;10.876;2022-12-18T09:49:21;-4.60;99.90
49032;DHT22;63443;48.366;10.876;2022-12-18T09:51:50;-4.40;99.90
49032;DHT22;63443;48.366;10.876;2022-12-18T09:54:18;-4.30;99.90
49032;DHT22;63443;48.366;10.876;2022-12-18T09:56:45;-4.10;99.90
49032;DHT22;63443;48.366;10.876;2022-12-18T10:01:55;-4.00;99.90
49032;DHT22;63443;48.366;10.876;2022-12-18T10:04:20;-3.90;99.90
49032;DHT22;63443;48.366;10.876;2022-12-18T10:06:49;-3.90;99.90
49032;DHT22;63443;48.366;10.876;2022-12-18T10:09:27;-3.80;99.90
49032;DHT22;63443;48.366;10.876;2022-12-18T10:11:56;-3.80;99.90
49032;DHT22;63443;48.366;10.876;2022-12-18T10:19:39;-3.40;99.90
49032;DHT22;63443;48.366;10.876;2022-12-18T10:24:44;-3.80;99.90
49032;DHT22;63443;48.366;10.876;2022-12-18T10:27:17;-3.70;99.90
49032;DHT22;63443;48.366;10.876;2022-12-18T10:29:44;-3.80;99.90
49032;DHT22;63443;48.366;10.876;2022-12-18T10:32:16;-3.70;99.90
49032;DHT22;63443;48.366;10.876;2022-12-18T10:34:49;-3.80;99.90
49032;DHT22;63443;48.366;10.876;2022-12-18T10:37:20;-3.80;99.90
49032;DHT22;63443;48.366;10.876;2022-12-18T10:39:46;-3.90;99.90
49032;DHT22;63443;48.366;10.876;2022-12-18T10:42:19;-3.90;99.90
49032;DHT22;63443;48.366;10.876;2022-12-18T10:44:44;-4.00;99.90
49032;DHT22;63443;48.366;10.876;2022-12-18T10:47:17;-3.70;99.90
49032;DHT22;63443;48.366;10.876;2022-12-18T10:49:50;-3.40;99.90
49032;DHT22;63443;48.366;10.876;2022-12-18T10:54:51;-3.20;99.90
49032;DHT22;63443;48.366;10.876;2022-12-18T10:59:53;-3.40;99.90
49032;DHT22;63443;48.366;10.876;2022-12-18T11:02:36;-3.20;99.90
49032;DHT22;63443;48.366;10.876;2022-12-18T11:05:03;-3.20;99.90
49032;DHT22;63443;48.366;10.876;2022-12-18T11:07:49;-3.20;99.90
49032;DHT22;63443;48.366;10.876;2022-12-18T11:10:30;-3.00;99.90
49032;DHT22;63443;48.366;10.876;2022-12-18T11:12:58;-2.90;99.90
49032;DHT22;63443;48.366;10.876;2022-12-18T11:15:34;-2.80;99.90
49032;DHT22;63443;48.366;10.876;2022-12-18T11:17:59;-2.70;99.90
49032;DHT22;63443;48.366;10.876;2022-12-18T11:20:31;-2.70;99.90
49032;DHT22;63443;48.366;10.876;2022-12-18T11:23:04;-2.80;99.90
49032;DHT22;63443;48.366;10.876;2022-12-18T11:25:35;-2.80;99.90
49032;DHT22;63443;48.366;10.876;2022-12-18T11:28:02;-2.80;99.90
49032;DHT22;63443;48.366;10.876;2022-12-18T11:30:29;-2.60;99.90
49032;DHT22;63443;48.366;10.876;2022-12-18T11:35:49;-2.70;99.90
49032;DHT22;63443;48.366;10.876;2022-12-18T11:40:42;-2.70;99.90
49032;DHT22;63443;48.366;10.876;2022-12-18T11:45:54;-2.80;99.90
49032;DHT22;63443;48.366;10.876;2022-12-18T11:48:27;-2.80;99.90
49032;DHT22;63443;48.366;10.876;2022-12-18T11:50:54;-2.80;99.90
49032;DHT22;63443;48.366;10.876;2022-12-18T11:53:21;-2.70;99.90
49032;DHT22;63443;48.366;10.876;2022-12-18T12:03:47;-2.70;99.90
49032;DHT22;63443;48.366;10.876;2022-12-18T12:06:21;-2.60;99.90
49032;DHT22;63443;48.366;10.876;2022-12-18T12:16:25;-2.70;99.90
49032;DHT22;63443;48.366;10.876;2022-12-18T12:18:59;-2.70;99.90
49032;DHT22;63443;48.366;10.876;2022-12-18T12:21:39;-2.80;99.90
49032;DHT22;63443;48.366;10.876;2022-12-18T12:29:27;-3.10;99.90
49032;DHT22;63443;48.366;10.876;2022-12-18T12:39:42;-2.90;99.90
49032;DHT22;63443;48.366;10.876;2022-12-18T12:45:23;-2.90;99.90
49032;DHT22;63443;48.366;10.876;2022-12-18T12:47:51;-2.90;99.90
49032;DHT22;63443;48.366;10.876;2022-12-18T12:50:18;-2.80;99.90
49032;DHT22;63443;48.366;10.876;2022-12-18T12:52:48;-3.20;99.90
49032;DHT22;63443;48.366;10.876;2022-12-18T12:55:16;-3.00;99.90
49032;DHT22;63443;48.366;10.876;2022-12-18T12:57:45;-2.90;99.90
49032;DHT22;63443;48.366;10.876;2022-12-18T13:00:11;-2.90;99.90
49032;DHT22;63443;48.366;10.876;2022-12-18T13:02:50;-3.10;99.90
49032;DHT22;63443;48.366;10.876;2022-12-18T13:05:30;-3.10;99.90
49032;DHT22;63443;48.366;10.876;2022-12-18T13:08:02;-3.40;99.90
49032;DHT22;63443;48.366;10.876;2022-12-18T13:10:32;-3.10;99.90
49032;DHT22;63443;48.366;10.876;2022-12-18T13:20:40;-3.30;99.90
49032;DHT22;63443;48.366;10.876;2022-12-18T13:23:19;-3.20;99.90
49032;DHT22;63443;48.366;10.876;2022-12-18T13:25:45;-3.10;99.90
49032;DHT22;63443;48.366;10.876;2022-12-18T13:38:22;-3.70;99.90
49032;DHT22;63443;48.366;10.876;2022-12-18T13:43:15;-4.00;99.90
49032;DHT22;63443;48.366;10.876;2022-12-18T13:48:19;-3.80;99.90
49032;DHT22;63443;48.366;10.876;2022-12-18T13:50:52;-4.00;99.90
49032;DHT22;63443;48.366;10.876;2022-12-18T13:53:20;-4.20;99.90
49032;DHT22;63443;48.366;10.876;2022-12-18T13:55:46;-3.90;99.90
49032;DHT22;63443;48.366;10.876;2022-12-18T13:58:12;-3.80;99.90
49032;DHT22;63443;48.366;10.876;2022-12-18T14:00:41;-3.90;99.90
49032;DHT22;63443;48.366;10.876;2022-12-18T14:03:17;-3.80;99.90
49032;DHT22;63443;48.366;10.876;2022-12-18T14:05:43;-3.90;99.90
49032;DHT22;63443;48.366;10.876;2022-12-18T14:08:10;-4.00;99.90
49032;DHT22;63443;48.366;10.876;2022-12-18T14:10:43;-3.90;99.90
49032;DHT22;63443;48.366;10.876;2022-12-18T14:13:10;-3.80;99.90
49032;DHT22;63443;48.366;10.876;2022-12-18T14:15:40;-3.80;99.90
49032;DHT22;63443;48.366;10.876;2022-12-18T14:20:51;-3.90;99.90
49032;DHT22;63443;48.366;10.876;2022-12-18T14:23:27;-3.80;99.90
49032;DHT22;63443;48.366;10.876;2022-12-18T14:25:53;-3.80;99.90
49032;DHT22;63443;48.366;10.876;2022-12-18T14:28:19;-4.00;99.90
49032;DHT22;63443;48.366;10.876;2022-12-18T14:30:45;-4.30;99.90
49032;DHT22;63443;48.366;10.876;2022-12-18T14:33:12;-4.30;99.90
49032;DHT22;63443;48.366;10.876;2022-12-18T14:35:42;-4.20;99.90
49032;DHT22;63443;48.366;10.876;2022-12-18T14:40:36;-4.00;99.90
49032;DHT22;63443;48.366;10.876;2022-12-18T14:43:02;-4.00;99.90
49032;DHT22;63443;48.366;10.876;2022-12-18T14:45:34;-4.00;99.90
49032;DHT22;63443;48.366;10.876;2022-12-18T14:48:07;-4.00;99.90
49032;DHT22;63443;48.366;10.876;2022-12-18T14:50:33;-4.20;99.90
49032;DHT22;63443;48.366;10.876;2022-12-18T14:52:58;-4.20;99.90
49032;DHT22;63443;48.366;10.876;2022-12-18T14:55:24;-4.20;99.90
49032;DHT22;63443;48.366;10.876;2022-12-18T14:57:53;-4.30;99.90
49032;DHT22;63443;48.366;10.876;2022-12-18T15:00:21;-4.20;99.90
49032;DHT22;63443;48.366;10.876;2022-12-18T15:02:48;-4.30;99.90
49032;DHT22;63443;48.366;10.876;2022-12-18T15:05:28;-4.40;99.90
49032;DHT22;63443;48.366;10.876;2022-12-18T15:07:55;-4.40;99.90
49032;DHT22;63443;48.366;10.876;2022-12-18T15:10:21;-4.50;99.90
49032;DHT22;63443;48.366;10.876;2022-12-18T15:20:32;-4.60;99.90
49032;DHT22;63443;48.366;10.876;2022-12-18T15:22:58;-4.80;99.90
49032;DHT22;63443;48.366;10.876;2022-12-18T15:25:30;-4.70;99.90
49032;DHT22;63443;48.366;10.876;2022-12-18T15:27:57;-4.90;99.90
49032;DHT22;63443;48.366;10.876;2022-12-18T15:30:23;-4.80;99.90
49032;DHT22;63443;48.366;10.876;2022-12-18T15:32:48;-4.80;99.90
49032;DHT22;63443;48.366;10.876;2022-12-18T15:37:40;-4.80;99.90
49032;DHT22;63443;48.366;10.876;2022-12-18T15:40:06;-4.70;99.90
49032;DHT22;63443;48.366;10.876;2022-12-18T15:42:32;-4.70;99.90
49032;DHT22;63443;48.366;10.876;2022-12-18T15:45:16;-4.70;99.90
49032;DHT22;63443;48.366;10.876;2022-12-18T15:47:41;-4.80;99.90
49032;DHT22;63443;48.366;10.876;2022-12-18T15:50:07;-4.80;99.90
49032;DHT22;63443;48.366;10.876;2022-12-18T15:52:38;-4.80;99.90
49032;DHT22;63443;48.366;10.876;2022-12-18T15:55:05;-4.80;99.90
49032;DHT22;63443;48.366;10.876;2022-12-18T15:57:49;-4.80;99.90
49032;DHT22;63443;48.366;10.876;2022-12-18T16:00:15;-4.80;99.90
49032;DHT22;63443;48.366;10.876;2022-12-18T16:02:40;-4.80;99.90
49032;DHT22;63443;48.366;10.876;2022-12-18T16:05:11;-4.80;99.90
49032;DHT22;63443;48.366;10.876;2022-12-18T16:07:39;-4.70;99.90
49032;DHT22;63443;48.366;10.876;2022-12-18T16:10:05;-4.70;99.90
49032;DHT22;63443;48.366;10.876;2022-12-18T16:12:30;-4.80;99.90
49032;DHT22;63443;48.366;10.876;2022-12-18T16:14:56;-4.80;99.90
49032;DHT22;63443;48.366;10.876;2022-12-18T16:17:21;-4.80;99.90
49032;DHT22;63443;48.366;10.876;2022-12-18T16:19:47;-4.90;99.90
49032;DHT22;63443;48.366;10.876;2022-12-18T16:22:15;-4.80;99.90
49032;DHT22;63443;48.366;10.876;2022-12-18T16:24:42;-4.90;99.90
49032;DHT22;63443;48.366;10.876;2022-12-18T16:27:08;-4.90;99.90
49032;DHT22;63443;48.366;10.876;2022-12-18T16:29:34;-4.80;99.90
49032;DHT22;63443;48.366;10.876;2022-12-18T16:32:00;-4.80;99.90
49032;DHT22;63443;48.366;10.876;2022-12-18T16:34:26;-4.80;99.90
49032;DHT22;63443;48.366;10.876;2022-12-18T16:36:55;-4.70;99.90
49032;DHT22;63443;48.366;10.876;2022-12-18T16:39:21;-4.60;99.90
49032;DHT22;63443;48.366;10.876;2022-12-18T16:41:47;-4.70;99.90
49032;DHT22;63443;48.366;10.876;2022-12-18T16:44:13;-4.50;99.90
49032;DHT22;63443;48.366;10.876;2022-12-18T16:46:39;-4.70;99.90
49032;DHT22;63443;48.366;10.876;2022-12-18T16:49:04;-4.60;99.90
49032;DHT22;63443;48.366;10.876;2022-12-18T16:51:30;-4.60;99.90
49032;DHT22;63443;48.366;10.876;2022-12-18T16:53:56;-4.80;99.90
49032;DHT22;63443;48.366;10.876;2022-12-18T16:56:21;-4.70;99.90
49032;DHT22;63443;48.366;10.876;2022-12-18T16:58:53;-4.80;99.90
49032;DHT22;63443;48.366;10.876;2022-12-18T17:01:19;-4.80;99.90
49032;DHT22;63443;48.366;10.876;2022-12-18T17:04:07;-4.80;99.90
49032;DHT22;63443;48.366;10.876;2022-12-18T17:06:32;-4.90;99.90
49032;DHT22;63443;48.366;10.876;2022-12-18T17:08:58;-4.80;99.90
49032;DHT22;63443;48.366;10.876;2022-12-18T17:11:25;-4.90;99.90
49032;DHT22;63443;48.366;10.876;2022-12-18T17:13:51;-4.90;99.90
49032;DHT22;63443;48.366;10.876;2022-12-18T17:16:17;-4.80;99.90
49032;DHT22;63443;48.366;10.876;2022-12-18T17:18:42;-4.80;99.90
49032;DHT22;63443;48.366;10.876;2022-12-18T17:21:08;-4.80;99.90